Elmira, CA (95625)

6:38 PM PST on February 13, 2016 (GMT -0800)
KCAVACAV8 | | Change Station
CLOSE
Current Station
Personal Weather Station
Location: Vacaville, CA
Elevation: 125 ft
Nearby Weather Stations

Elev 125 ft 38.34 °N, 121.94 °W | Updated 1 second ago

Partly Cloudy
Partly Cloudy
67.1 °F
Feels Like 67.1 °F
N
0.0
Wind Variable Wind from SE
Gusts 0.0 mph

Today
High -- | Low -- °F
--% Chance of Precip.
Yesterday
High -- | Low -- °F
Precip. -- in
Pressure 30.20 in
Visibility 10.0 miles
Clouds Clear
Dew Point 55 °F
Humidity 66%
Rainfall 0.00 in
Snow Depth Not available.
7:00 AM 5:43 PM
Waxing Crescent, 36% visible
METAR KVCB 140153Z AUTO 00000KT 10SM CLR 18/11 A3020 RMK AO2 SLP227 T01830106
Pressure 30.20 in
Visibility 10.0 miles
Clouds Clear
Dew Point 55 °F
Humidity 66%
Rainfall 0.00 in
Snow Depth Not available.
7:00 AM 5:43 PM
Waxing Crescent, 36% visible
METAR KVCB 140153Z AUTO 00000KT 10SM CLR 18/11 A3020 RMK AO2 SLP227 T01830106

10-Day Weather Forecast

Almanac

Astronomy

Feb. 13, 2016 Rise Set
Actual Time
Civil Twilight
Nautical Twilight
Astronomical Twilight
Moon
Length of Visible Light
Length of Day
Tomorrow will be .
, % of the Moon is Illuminated

Today's Extremes

State Highs State Lows

Community

WunderPhotos

Upload Photos

1,892,730 photos uploaded!

WunderBlog® & News

Nearby

Air Quality

  Air Quality AQ Index Pollutant
Not available.

Snow Depth

Station Depth Elevation

Earthquake Activity

City Distance Mag. Time & Date
Minimum magnitude displayed is 2.5.

Coastal Water Temperatures

Place Temperature

Stations

Nearby Weather Stations

Station Location Temp. Windchill Dew Point Humidity Wind Precip. Elev Updated Type
                   

Watches & Warnings

There are currently no watches in effect.